Weather at Bill & Hillary Clinton National Airport/Adams Field

Public forecast

Using degrees Fahrenheit for public forecast. Weather courtesy of forecast.io.

Current aviation weather report (METAR) for Bill & Hillary Clinton National Airport/Adams Field

Retrieved 2020/09/30 07:53 UTC (11 minutes ago):

KLIT 300753Z 25006KT 10SM FEW250 12/10 A3001 RMK AO2 SLP164 T01170100

Aviation forecast (TAF) for Bill & Hillary Clinton National Airport/Adams Field

Retrieved 2020/09/30 06:22 UTC (2 hours ago):

TAF KLIT 300520Z 3006/0106 25004KT P6SM SKC FM301500 24009G16KT P6SM SKC